Time;durP1;ratioP1;P1;durP2;ratioP2;P2;SDS_P1;SDS_P2;PMS_P1;PMS_P2;Temp;Humidity;BMP_temperature;BMP_pressure;BME280_temperature;BME280_humidity;BME280_pressure;Samples;Min_cycle;Max_cycle;Signal;HPM_P1;HPM_P2
2023/07/13 00:00:42;;;;;;;6.13;1.95;;;;;;;20.42;47.95;101311.34;5052374;28;20036;-72
2023/07/13 00:03:08;;;;;;;5.82;1.70;;;;;;;20.17;48.56;101306.97;5052770;28;20072;-72
2023/07/13 00:05:33;;;;;;;6.53;1.73;;;;;;;20.30;48.39;101321.09;5063831;28;20543;-72
2023/07/13 00:07:59;;;;;;;6.85;1.50;;;;;;;20.37;48.38;101317.06;5072862;28;20115;-71
2023/07/13 00:10:24;;;;;;;4.97;2.00;;;;;;;20.27;48.39;101313.25;5075369;28;20069;-72
2023/07/13 00:12:50;;;;;;;9.98;2.00;;;;;;;20.14;48.66;101311.22;5052630;28;20017;-71
2023/07/13 00:15:22;;;;;;;6.00;1.65;;;;;;;20.27;48.61;101309.59;5052742;28;20443;-71
2023/07/13 00:17:53;;;;;;;7.47;1.73;;;;;;;20.15;48.97;101312.06;5052571;28;20713;-71
2023/07/13 00:20:22;;;;;;;4.68;1.40;;;;;;;20.19;48.96;101304.66;5052277;28;20104;-71
2023/07/13 00:22:49;;;;;;;4.30;1.60;;;;;;;20.25;49.14;101309.09;5061293;28;20369;-71
2023/07/13 00:25:15;;;;;;;5.85;1.50;;;;;;;20.22;48.84;101309.69;5053290;28;20029;-71
2023/07/13 00:27:43;;;;;;;5.18;2.35;;;;;;;20.05;49.38;101305.47;5051794;28;20468;-72
2023/07/13 00:30:10;;;;;;;4.78;2.20;;;;;;;20.10;49.23;101307.34;5052591;28;20033;-71
2023/07/13 00:32:35;;;;;;;10.40;3.58;;;;;;;20.04;49.32;101300.97;5051991;28;20108;-72
2023/07/13 00:35:03;;;;;;;9.95;4.20;;;;;;;20.05;49.45;101313.91;5052043;28;20166;-71
2023/07/13 00:37:28;;;;;;;9.30;4.38;;;;;;;19.89;49.77;101315.31;5057531;28;20082;-72
2023/07/13 00:39:54;;;;;;;6.18;3.38;;;;;;;19.92;49.90;101311.84;5070626;28;20488;-71
2023/07/13 00:42:19;;;;;;;8.30;2.70;;;;;;;19.89;49.91;101317.28;5072035;28;20085;-71
2023/07/13 00:45:12;;;;;;;6.85;1.83;;;;;;;19.84;49.86;101310.56;5071772;28;20476;-71
2023/07/13 00:47:39;;;;;;;6.07;1.98;;;;;;;19.81;49.95;101324.44;5072472;28;20039;-71
2023/07/13 00:50:08;;;;;;;4.22;2.00;;;;;;;19.83;50.49;101320.16;5071370;28;20043;-71
2023/07/13 00:52:36;;;;;;;6.45;2.03;;;;;;;19.83;50.39;101328.59;5076447;28;20020;-71
2023/07/13 00:55:02;;;;;;;6.43;1.90;;;;;;;19.73;50.40;101325.94;5091479;28;20020;-71
2023/07/13 00:57:28;;;;;;;5.88;1.90;;;;;;;19.71;50.68;101316.13;5058920;28;20074;-71
2023/07/13 00:59:58;;;;;;;7.30;2.05;;;;;;;19.71;50.69;101327.38;5071892;28;20032;-71
2023/07/13 01:02:25;;;;;;;4.75;2.05;;;;;;;19.66;50.89;101330.28;5070838;28;20024;-71
2023/07/13 01:04:51;;;;;;;9.27;3.65;;;;;;;19.52;51.13;101319.72;5072400;28;20095;-71
2023/07/13 01:07:18;;;;;;;9.95;4.43;;;;;;;19.68;50.94;101322.34;5068360;28;20498;-71
2023/07/13 01:09:44;;;;;;;11.60;6.35;;;;;;;19.75;50.82;101308.72;5088466;28;20036;-72
2023/07/13 01:12:11;;;;;;;16.20;6.35;;;;;;;19.82;50.65;101314.84;5090818;28;20034;-71
2023/07/13 01:14:36;;;;;;;13.88;7.18;;;;;;;19.78;50.93;101317.41;5058155;28;20079;-71
2023/07/13 01:17:03;;;;;;;18.67;8.50;;;;;;;19.62;51.32;101321.59;5051364;28;20024;-71
2023/07/13 01:19:42;;;;;;;15.75;6.57;;;;;;;19.74;51.02;101327.63;5051447;28;20036;-71
2023/07/13 01:22:15;;;;;;;18.38;8.38;;;;;;;19.67;51.21;101329.13;5051426;28;20029;-71
2023/07/13 01:24:43;;;;;;;14.18;7.25;;;;;;;19.71;51.14;101330.19;5050705;28;20052;-71
2023/07/13 01:27:10;;;;;;;15.68;8.13;;;;;;;19.62;51.31;101335.69;5054080;28;20032;-71
2023/07/13 01:29:47;;;;;;;15.80;8.50;;;;;;;19.64;51.55;101333.38;5069517;28;20043;-71
2023/07/13 01:32:23;;;;;;;16.00;9.13;;;;;;;19.48;51.81;101329.06;5050319;28;20032;-72
2023/07/13 01:34:50;;;;;;;18.35;9.43;;;;;;;19.61;51.78;101334.84;5051349;28;20094;-71
2023/07/13 01:37:16;;;;;;;23.00;10.52;;;;;;;19.63;51.59;101333.69;5050901;28;20033;-71
2023/07/13 01:39:41;;;;;;;23.45;12.07;;;;;;;19.65;51.76;101337.91;5050918;28;20029;-71
2023/07/13 01:42:06;;;;;;;21.20;11.30;;;;;;;19.68;51.72;101340.09;5051058;28;20465;-71
2023/07/13 01:44:32;;;;;;;28.75;14.90;;;;;;;19.63;51.91;101342.16;5057903;28;20024;-71
2023/07/13 01:46:58;;;;;;;21.92;11.77;;;;;;;19.69;52.01;101335.28;5063226;28;20029;-71
2023/07/13 01:49:23;;;;;;;28.35;16.10;;;;;;;19.46;52.33;101343.47;5051376;28;20032;-71
2023/07/13 01:51:48;;;;;;;24.23;13.25;;;;;;;19.55;52.16;101352.06;5049775;28;20588;-71
2023/07/13 01:54:14;;;;;;;23.17;11.57;;;;;;;19.58;52.23;101340.22;5051433;28;20033;-71
2023/07/13 01:56:41;;;;;;;20.75;11.70;;;;;;;19.64;52.31;101344.66;5050344;28;20028;-71
2023/07/13 01:59:07;;;;;;;25.70;12.32;;;;;;;19.63;52.11;101351.44;5050715;28;20347;-72
2023/07/13 02:01:32;;;;;;;23.55;11.90;;;;;;;19.57;52.05;101344.13;5066350;28;20037;-71
2023/07/13 02:03:58;;;;;;;23.85;12.50;;;;;;;19.40;52.53;101343.81;5066653;28;20372;-72
2023/07/13 02:06:23;;;;;;;22.50;11.80;;;;;;;19.56;52.56;101345.28;5050012;28;20384;-72
2023/07/13 02:08:49;;;;;;;19.40;10.73;;;;;;;19.52;52.48;101347.88;5062787;28;20054;-72
2023/07/13 02:11:14;;;;;;;26.48;11.68;;;;;;;19.47;52.68;101350.75;5068984;28;20024;-71
2023/07/13 02:13:40;;;;;;;18.10;9.88;;;;;;;19.44;52.72;101351.34;5052337;28;20025;-72
2023/07/13 02:16:06;;;;;;;20.08;9.48;;;;;;;19.39;52.83;101359.88;5077692;28;20044;-72
2023/07/13 02:18:32;;;;;;;19.98;8.90;;;;;;;19.34;53.04;101351.50;5050890;28;20380;-71
2023/07/13 02:20:57;;;;;;;14.90;6.60;;;;;;;19.30;53.15;101356.88;5049647;28;20090;-71
2023/07/13 02:23:22;;;;;;;14.65;5.45;;;;;;;19.21;53.50;101352.19;5051153;28;20491;-72
2023/07/13 02:25:48;;;;;;;13.40;6.72;;;;;;;19.41;53.17;101351.09;5049909;28;20166;-72
2023/07/13 02:28:13;;;;;;;13.18;5.43;;;;;;;19.38;53.13;101352.56;5059914;28;20097;-72
2023/07/13 02:30:39;;;;;;;10.82;4.60;;;;;;;19.20;53.39;101342.91;5069556;28;20029;-72
2023/07/13 02:33:04;;;;;;;13.38;5.88;;;;;;;19.33;53.31;101347.81;5070478;28;20031;-72
2023/07/13 02:35:30;;;;;;;15.35;5.93;;;;;;;19.23;53.48;101350.78;5064937;28;20036;-71
2023/07/13 02:37:55;;;;;;;21.95;8.27;;;;;;;19.26;53.62;101355.81;5068139;28;20101;-72
2023/07/13 02:40:20;;;;;;;18.95;9.18;;;;;;;19.25;53.52;101345.66;5056712;28;20105;-72
2023/07/13 02:42:46;;;;;;;21.02;10.48;;;;;;;19.07;53.96;101352.09;5068042;28;20024;-71
2023/07/13 02:45:13;;;;;;;21.85;9.80;;;;;;;19.16;53.75;101344.66;5068960;28;20115;-71
2023/07/13 02:47:40;;;;;;;17.40;8.02;;;;;;;19.12;53.87;101354.84;5066633;28;20075;-71
2023/07/13 02:50:06;;;;;;;18.00;7.20;;;;;;;19.10;54.15;101351.50;5049354;28;20048;-72
2023/07/13 02:52:31;;;;;;;20.17;7.15;;;;;;;19.19;53.98;101349.69;5059108;28;20405;-72
2023/07/13 02:54:57;;;;;;;13.60;5.97;;;;;;;19.17;53.92;101348.31;5056624;28;20029;-72
2023/07/13 02:57:22;;;;;;;18.45;7.40;;;;;;;19.21;54.08;101347.41;5058844;28;20825;-72
2023/07/13 02:59:48;;;;;;;18.35;6.70;;;;;;;19.00;54.46;101345.97;5059837;28;20432;-71
2023/07/13 03:02:13;;;;;;;15.27;6.63;;;;;;;19.01;54.54;101353.25;5054978;28;20024;-72
2023/07/13 03:04:40;;;;;;;14.25;6.05;;;;;;;19.07;54.48;101343.66;5067737;28;20033;-72
2023/07/13 03:07:06;;;;;;;21.77;6.53;;;;;;;18.98;54.73;101349.09;5068587;28;20492;-72
2023/07/13 03:09:33;;;;;;;14.57;6.45;;;;;;;19.03;54.53;101346.22;5050812;28;20120;-72
2023/07/13 03:11:58;;;;;;;15.85;5.35;;;;;;;19.06;54.46;101351.25;5066699;28;20024;-72
2023/07/13 03:14:24;;;;;;;14.98;5.60;;;;;;;19.04;54.75;101352.69;5056831;28;20033;-72
2023/07/13 03:16:50;;;;;;;18.00;6.43;;;;;;;18.98;54.83;101349.09;5051958;28;20090;-72
2023/07/13 03:19:15;;;;;;;17.80;6.13;;;;;;;19.01;55.10;101348.47;5069709;28;20033;-71
2023/07/13 03:21:41;;;;;;;14.35;5.85;;;;;;;18.86;55.08;101354.25;5069982;28;20024;-72
2023/07/13 03:24:07;;;;;;;17.30;6.20;;;;;;;18.98;54.85;101351.91;5067104;28;20029;-72
2023/07/13 03:26:32;;;;;;;19.50;5.85;;;;;;;18.87;55.40;101364.41;5081052;28;20365;-72
2023/07/13 03:28:58;;;;;;;15.23;5.78;;;;;;;18.95;55.13;101354.47;5070838;28;20052;-72
2023/07/13 03:31:28;;;;;;;13.02;5.50;;;;;;;18.94;55.36;101355.59;5074136;28;20108;-72
2023/07/13 03:33:54;;;;;;;18.17;6.65;;;;;;;18.85;55.63;101361.84;5074158;28;20031;-72
2023/07/13 03:36:23;;;;;;;20.98;6.93;;;;;;;18.95;55.49;101365.72;5073657;28;20032;-71
2023/07/13 03:38:50;;;;;;;17.38;6.72;;;;;;;18.95;55.35;101371.34;5074185;28;20051;-72
2023/07/13 03:41:16;;;;;;;15.23;5.72;;;;;;;19.04;55.33;101372.38;5073202;28;20029;-72
2023/07/13 03:43:42;;;;;;;19.98;7.53;;;;;;;18.97;55.32;101366.25;5072169;28;20039;-72
2023/07/13 03:46:08;;;;;;;21.50;7.25;;;;;;;18.95;55.44;101374.16;5064902;28;20036;-72
2023/07/13 03:48:33;;;;;;;19.88;6.00;;;;;;;18.81;55.87;101376.81;5067464;28;20025;-72
2023/07/13 03:50:59;;;;;;;15.80;6.13;;;;;;;18.82;55.88;101378.47;5072774;28;20378;-71
2023/07/13 03:53:25;;;;;;;10.40;4.30;;;;;;;18.57;56.78;101377.56;5073324;28;20847;-71
2023/07/13 03:55:50;;;;;;;13.30;3.85;;;;;;;18.75;56.32;101380.81;5073366;28;20139;-71
2023/07/13 03:58:30;;;;;;;14.27;3.70;;;;;;;18.80;55.94;101383.59;5072661;28;20082;-71
2023/07/13 04:00:57;;;;;;;6.93;2.53;;;;;;;18.57;57.08;101382.34;5090341;28;20032;-71
2023/07/13 04:03:23;;;;;;;10.90;3.47;;;;;;;18.72;56.54;101381.41;5072232;28;20070;-71
2023/07/13 04:05:48;;;;;;;7.32;2.80;;;;;;;18.63;56.79;101384.00;5070169;28;20517;-71
2023/07/13 04:08:14;;;;;;;11.25;3.55;;;;;;;18.77;56.35;101390.63;5073432;28;20070;-71
2023/07/13 04:10:40;;;;;;;8.13;3.15;;;;;;;18.75;56.60;101398.53;5072812;28;20051;-71
2023/07/13 04:13:05;;;;;;;9.30;3.10;;;;;;;18.67;57.06;101399.13;5072514;28;20059;-72
2023/07/13 04:15:32;;;;;;;9.80;3.53;;;;;;;18.77;56.73;101404.69;5088832;28;20120;-71
2023/07/13 04:17:58;;;;;;;9.57;3.17;;;;;;;18.79;56.91;101408.06;5093224;28;20086;-72
2023/07/13 04:20:25;;;;;;;12.82;3.83;;;;;;;18.79;56.30;101405.25;5071003;28;20032;-71
2023/07/13 04:22:52;;;;;;;8.80;3.15;;;;;;;18.56;57.74;101409.63;5055022;28;20037;-72
2023/07/13 04:25:18;;;;;;;9.45;3.67;;;;;;;18.74;57.03;101407.25;5072646;28;20035;-72
2023/07/13 04:27:44;;;;;;;13.80;4.57;;;;;;;18.69;57.47;101405.28;5076641;28;20364;-72
2023/07/13 04:30:09;;;;;;;16.00;5.82;;;;;;;18.65;57.47;101412.63;5087053;28;20043;-72
2023/07/13 04:32:35;;;;;;;13.10;4.60;;;;;;;18.73;57.70;101414.84;5091620;28;20476;-72
2023/07/13 04:35:00;;;;;;;14.00;4.40;;;;;;;18.78;57.60;101406.34;5092018;28;20510;-72
2023/07/13 04:37:26;;;;;;;14.80;5.30;;;;;;;18.67;58.41;101410.38;5069930;28;20025;-72
2023/07/13 04:39:52;;;;;;;11.82;4.30;;;;;;;18.81;57.62;101408.59;5072557;28;20483;-72
2023/07/13 04:42:18;;;;;;;17.55;5.47;;;;;;;18.70;58.65;101414.56;5092221;28;20081;-72
2023/07/13 04:44:52;;;;;;;11.13;5.07;;;;;;;18.78;58.12;101417.59;5091991;28;20047;-72
2023/07/13 04:47:18;;;;;;;16.25;5.35;;;;;;;18.83;58.18;101423.22;5092299;28;20032;-72
2023/07/13 04:49:44;;;;;;;13.73;6.07;;;;;;;18.68;59.02;101417.69;5092006;28;20039;-72
2023/07/13 04:52:10;;;;;;;15.43;6.15;;;;;;;18.74;59.19;101424.13;5092631;28;20085;-72
2023/07/13 04:54:37;;;;;;;12.85;5.60;;;;;;;18.83;58.93;101422.38;5071141;28;20020;-71
2023/07/13 04:57:03;;;;;;;17.52;6.38;;;;;;;18.81;59.28;101425.47;5083256;28;20093;-72
2023/07/13 04:59:28;;;;;;;15.10;6.13;;;;;;;18.81;59.52;101425.47;5091813;28;20027;-72
2023/07/13 05:01:53;;;;;;;16.90;6.75;;;;;;;18.87;59.50;101424.28;5069606;28;20036;-72
2023/07/13 05:04:19;;;;;;;17.15;7.25;;;;;;;18.88;59.09;101428.78;5052025;28;20033;-71
2023/07/13 05:06:44;;;;;;;20.38;7.97;;;;;;;18.78;60.08;101431.66;5069241;28;20034;-71
2023/07/13 05:09:10;;;;;;;16.33;7.45;;;;;;;18.79;60.31;101424.94;5071133;28;20082;-72
2023/07/13 05:11:35;;;;;;;21.10;7.28;;;;;;;18.95;59.69;101430.41;5057929;28;20115;-72
2023/07/13 05:14:01;;;;;;;19.13;8.50;;;;;;;18.91;60.11;101430.16;5052151;28;20017;-72
2023/07/13 05:16:27;;;;;;;19.25;7.97;;;;;;;18.91;60.26;101440.59;5050442;28;20456;-72
2023/07/13 05:18:53;;;;;;;16.25;6.93;;;;;;;19.04;59.19;101440.72;5052208;28;20037;-72
2023/07/13 05:21:18;;;;;;;15.98;7.20;;;;;;;19.02;59.87;101434.56;5083582;28;20365;-72
2023/07/13 05:23:43;;;;;;;24.17;8.63;;;;;;;18.94;60.53;101445.59;5070861;28;20405;-72
2023/07/13 05:26:10;;;;;;;22.17;8.85;;;;;;;18.98;59.91;101458.81;5071634;28;20413;-72
2023/07/13 05:28:36;;;;;;;15.60;8.18;;;;;;;19.01;60.55;101451.72;5070452;28;20460;-72
2023/07/13 05:31:01;;;;;;;18.33;7.47;;;;;;;19.10;59.87;101458.41;5070194;28;20063;-72
2023/07/13 05:33:27;;;;;;;21.58;8.88;;;;;;;19.05;59.89;101453.66;5071497;28;20048;-72
2023/07/13 05:35:53;;;;;;;21.58;8.80;;;;;;;19.12;59.97;101456.97;5070126;28;20131;-72
2023/07/13 05:38:19;;;;;;;19.67;8.02;;;;;;;19.16;59.98;101456.38;5070774;28;20116;-72
2023/07/13 05:40:45;;;;;;;19.55;6.30;;;;;;;19.26;59.50;101453.47;5071671;28;20078;-72
2023/07/13 05:43:11;;;;;;;18.08;8.05;;;;;;;19.20;59.91;101454.66;5070931;28;20387;-72
2023/07/13 05:45:37;;;;;;;21.80;8.38;;;;;;;19.20;59.90;101463.94;5050836;28;20028;-72
2023/07/13 05:48:02;;;;;;;18.05;7.93;;;;;;;19.26;59.90;101453.47;5050955;28;20067;-72
2023/07/13 05:50:28;;;;;;;21.85;8.48;;;;;;;19.21;60.18;101451.53;5050255;28;20036;-72
2023/07/13 05:52:53;;;;;;;18.55;8.75;;;;;;;19.17;60.84;101458.06;5051249;28;20037;-72
2023/07/13 05:55:19;;;;;;;19.83;8.82;;;;;;;19.09;60.85;101467.97;5066029;28;20032;-72
2023/07/13 05:57:45;;;;;;;24.73;10.20;;;;;;;18.97;60.95;101453.44;5089132;28;20040;-72
2023/07/13 06:00:11;;;;;;;19.45;9.40;;;;;;;18.98;61.42;101466.38;5090766;28;20081;-72
2023/07/13 06:02:36;;;;;;;20.52;8.73;;;;;;;19.06;60.93;101468.56;5054714;28;20127;-72
2023/07/13 06:05:01;;;;;;;24.25;11.02;;;;;;;18.97;60.99;101471.16;5050247;28;20028;-72
2023/07/13 06:07:27;;;;;;;15.27;8.07;;;;;;;19.17;60.75;101480.56;5075508;28;20089;-72
2023/07/13 06:09:52;;;;;;;22.58;9.93;;;;;;;19.09;61.45;101480.06;5090670;28;20114;-72
2023/07/13 06:12:17;;;;;;;14.88;7.03;;;;;;;19.24;60.64;101484.72;5090358;28;20020;-72
2023/07/13 06:14:43;;;;;;;19.00;7.88;;;;;;;19.31;60.40;101492.81;5090598;28;20119;-71
2023/07/13 06:17:08;;;;;;;14.10;7.95;;;;;;;19.36;60.35;101478.69;5081115;28;20036;-72
2023/07/13 06:19:34;;;;;;;23.95;8.95;;;;;;;19.26;60.70;101485.28;5068776;28;20035;-72
2023/07/13 06:21:59;;;;;;;25.85;12.40;;;;;;;19.18;60.79;101485.91;5070737;28;20036;-73
2023/07/13 06:24:25;;;;;;;18.60;7.82;;;;;;;19.29;60.76;101489.44;5087215;28;20074;-72
2023/07/13 06:26:51;;;;;;;17.75;8.52;;;;;;;19.30;60.92;101500.44;5090102;28;20785;-73
2023/07/13 06:29:16;;;;;;;22.77;8.88;;;;;;;19.30;60.05;101492.00;5084515;28;20506;-73
2023/07/13 06:31:42;;;;;;;17.98;8.38;;;;;;;19.33;61.03;101501.78;5071839;28;20447;-73
2023/07/13 06:34:07;;;;;;;17.98;8.82;;;;;;;19.35;60.75;101500.38;5054899;28;20025;-74
2023/07/13 06:36:33;;;;;;;19.05;9.77;;;;;;;19.28;60.90;101499.88;5058203;28;20029;-72
2023/07/13 06:38:58;;;;;;;17.70;8.38;;;;;;;19.38;60.68;101499.78;5060979;28;20032;-65
2023/07/13 06:41:26;;;;;;;22.15;9.13;;;;;;;19.32;60.90;101500.13;5055614;28;20115;-76
2023/07/13 06:43:52;;;;;;;19.33;9.43;;;;;;;19.35;60.68;101506.00;5060069;28;20025;-72
2023/07/13 06:46:20;;;;;;;22.23;9.25;;;;;;;19.44;61.10;101499.72;5058113;28;20031;-71
2023/07/13 06:48:45;;;;;;;18.45;8.02;;;;;;;19.54;60.76;101502.44;5062835;28;20039;-72
2023/07/13 06:51:11;;;;;;;18.80;8.55;;;;;;;19.54;61.15;101506.09;5061755;28;20025;-72
2023/07/13 06:53:36;;;;;;;24.38;9.75;;;;;;;19.49;61.14;101508.97;5055189;28;20158;-72
2023/07/13 06:56:02;;;;;;;20.80;8.75;;;;;;;19.55;61.40;101510.59;5057908;28;20077;-72
2023/07/13 06:58:27;;;;;;;18.50;9.15;;;;;;;19.48;61.14;101512.91;5058961;28;20029;-72
2023/07/13 07:00:53;;;;;;;20.60;9.77;;;;;;;19.41;61.33;101515.22;5068476;28;20028;-72
2023/07/13 07:03:18;;;;;;;17.23;8.02;;;;;;;19.51;61.39;101514.28;5065708;28;20025;-73
2023/07/13 07:05:44;;;;;;;16.55;7.47;;;;;;;19.55;61.17;101509.75;5072765;28;20569;-78
2023/07/13 07:08:10;;;;;;;18.55;8.45;;;;;;;19.52;60.63;101519.63;5064733;28;20539;-75
2023/07/13 07:10:36;;;;;;;21.77;9.02;;;;;;;19.49;61.18;101517.41;5062615;28;20028;-75
2023/07/13 07:13:01;;;;;;;20.48;9.68;;;;;;;19.51;61.31;101514.28;5060953;28;20020;-68
2023/07/13 07:15:27;;;;;;;21.88;9.70;;;;;;;19.44;61.11;101519.44;5064936;28;20059;-71
2023/07/13 07:17:53;;;;;;;17.50;8.65;;;;;;;19.57;61.29;101518.72;5056111;28;20393;-70
2023/07/13 07:20:18;;;;;;;16.38;8.38;;;;;;;19.59;61.19;101520.13;5080854;28;20028;-72
2023/07/13 07:22:43;;;;;;;21.95;8.32;;;;;;;19.63;60.70;101526.03;5068387;28;20428;-71
2023/07/13 07:25:09;;;;;;;20.08;8.13;;;;;;;19.59;60.63;101524.91;5072212;28;20032;-73
2023/07/13 07:27:34;;;;;;;15.98;7.35;;;;;;;19.71;60.36;101524.53;5063794;28;20025;-76
2023/07/13 07:30:00;;;;;;;20.80;7.50;;;;;;;19.81;60.15;101519.63;5063407;28;20036;-75
2023/07/13 07:32:26;;;;;;;15.73;7.60;;;;;;;19.91;60.19;101529.09;5055568;28;20021;-78
2023/07/13 07:34:51;;;;;;;14.85;7.28;;;;;;;20.04;59.61;101528.38;5065809;28;20043;-78
2023/07/13 07:37:16;;;;;;;15.35;5.80;;;;;;;20.13;58.66;101537.84;5071418;28;20037;-78
2023/07/13 07:39:45;;;;;;;16.48;6.90;;;;;;;20.21;59.29;101527.88;5066631;28;20502;-79
2023/07/13 07:42:12;;;;;;;15.38;6.65;;;;;;;20.16;59.12;101530.75;5072291;28;20056;-79
2023/07/13 07:44:38;;;;;;;12.93;6.60;;;;;;;20.16;59.28;101522.28;5067316;28;20025;-79
2023/07/13 07:47:03;;;;;;;14.32;6.07;;;;;;;20.30;58.82;101537.34;5068486;28;20024;-79
2023/07/13 07:49:29;;;;;;;13.30;6.10;;;;;;;20.37;58.75;101520.91;5067371;28;20029;-78
2023/07/13 07:51:54;;;;;;;13.68;5.82;;;;;;;20.37;58.41;101532.19;5071269;28;20058;-78
2023/07/13 07:54:19;;;;;;;14.20;6.00;;;;;;;20.47;57.80;101531.19;5088925;28;20055;-79
2023/07/13 07:56:45;;;;;;;11.23;5.68;;;;;;;20.46;57.88;101536.00;5093071;28;20368;-79
2023/07/13 07:59:10;;;;;;;13.18;6.22;;;;;;;20.52;57.73;101536.81;5082491;28;20043;-79
2023/07/13 08:01:37;;;;;;;10.73;5.13;;;;;;;20.50;57.65;101536.25;5065757;28;20021;-78
2023/07/13 08:04:02;;;;;;;12.10;5.63;;;;;;;20.54;57.81;101538.16;5058395;28;20477;-79
2023/07/13 08:06:28;;;;;;;15.85;5.78;;;;;;;20.48;57.49;101539.38;5052261;28;20028;-80
2023/07/13 08:08:54;;;;;;;10.45;5.05;;;;;;;20.54;57.51;101531.69;5052307;28;20120;-78
2023/07/13 08:11:20;;;;;;;12.82;5.43;;;;;;;20.41;57.17;101543.69;5051488;28;20036;-78
2023/07/13 08:13:46;;;;;;;13.63;5.43;;;;;;;20.53;57.13;101539.31;5052430;28;20021;-78
2023/07/13 08:16:11;;;;;;;13.88;4.68;;;;;;;20.69;56.90;101533.44;5068801;28;20049;-78
2023/07/13 08:18:37;;;;;;;13.27;4.85;;;;;;;20.79;57.19;101542.63;5057591;28;21395;-78
2023/07/13 08:21:04;;;;;;;10.88;4.85;;;;;;;20.96;56.65;101544.03;5052621;28;20029;-79
2023/07/13 08:23:32;;;;;;;13.82;5.30;;;;;;;20.99;56.15;101541.44;5052342;28;20111;-78
2023/07/13 08:25:57;;;;;;;11.35;4.68;;;;;;;21.12;55.93;101530.53;5051256;28;20035;-78
2023/07/13 08:28:23;;;;;;;14.18;4.50;;;;;;;21.10;55.42;101530.81;5052231;28;20029;-79
2023/07/13 08:30:48;;;;;;;8.07;4.22;;;;;;;21.07;55.44;101537.94;5083426;28;20024;-79
2023/07/13 08:33:23;;;;;;;10.00;4.68;;;;;;;21.10;55.64;101539.28;5091703;28;20030;-79
2023/07/13 08:35:49;;;;;;;12.23;5.60;;;;;;;21.04;54.99;101547.00;5071276;28;20029;-78
2023/07/13 08:38:16;;;;;;;10.15;5.03;;;;;;;21.13;55.03;101537.84;5080135;28;20085;-78
2023/07/13 08:40:42;;;;;;;12.40;5.03;;;;;;;21.13;54.75;101535.84;5090905;28;20020;-78
2023/07/13 08:43:20;;;;;;;12.50;4.70;;;;;;;21.11;54.23;101540.16;5092076;28;20024;-78
2023/07/13 08:46:20;;;;;;;12.23;5.05;;;;;;;21.13;54.89;101535.84;5092016;28;20032;-78
2023/07/13 08:48:52;;;;;;;10.57;4.40;;;;;;;21.39;54.37;101530.63;5052857;28;20064;-78
2023/07/13 08:51:27;;;;;;;10.93;4.63;;;;;;;21.38;53.88;101534.63;5076838;28;20047;-76
2023/07/13 08:53:58;;;;;;;10.35;4.65;;;;;;;21.31;54.35;101540.63;5068085;28;20028;-75
2023/07/13 08:56:26;;;;;;;14.38;4.90;;;;;;;21.22;54.46;101541.63;5068527;28;20036;-75
2023/07/13 08:58:56;;;;;;;9.00;4.43;;;;;;;21.13;54.55;101537.84;5061561;28;20031;-76
2023/07/13 09:01:32;;;;;;;12.32;5.35;;;;;;;21.20;54.47;101532.63;5068572;28;20024;-76
2023/07/13 09:04:14;;;;;;;8.90;4.53;;;;;;;21.29;54.44;101528.78;5066457;28;20472;-77
2023/07/13 09:06:46;;;;;;;10.35;4.53;;;;;;;21.36;54.19;101533.25;5079355;28;20077;-77
2023/07/13 09:09:31;;;;;;;12.73;4.43;;;;;;;21.37;54.14;101534.91;5090811;28;20040;-76
2023/07/13 09:12:13;;;;;;;9.20;4.38;;;;;;;21.31;53.99;101534.16;5091442;28;20119;-76
2023/07/13 09:14:47;;;;;;;12.50;4.70;;;;;;;21.32;54.09;101536.69;5068995;28;20045;-76
2023/07/13 09:17:17;;;;;;;9.45;4.25;;;;;;;21.35;54.01;101540.03;5070092;28;20287;-76
2023/07/13 09:19:45;;;;;;;9.52;4.65;;;;;;;21.26;53.67;101535.06;5070954;28;20036;-76
2023/07/13 09:22:16;;;;;;;11.30;4.50;;;;;;;21.27;53.74;101533.09;5069882;28;20071;-77
2023/07/13 09:24:52;;;;;;;7.85;4.00;;;;;;;21.28;53.53;101535.59;5052785;28;20476;-77
2023/07/13 09:27:22;;;;;;;10.23;4.50;;;;;;;21.26;53.76;101532.25;5066028;28;20543;-77
2023/07/13 09:29:51;;;;;;;8.40;4.63;;;;;;;21.25;53.70;101536.19;5067049;28;20033;-77
2023/07/13 09:32:21;;;;;;;10.65;4.82;;;;;;;21.17;52.32;101528.44;5091310;28;20471;-77
2023/07/13 09:34:54;;;;;;;9.80;4.18;;;;;;;21.29;53.19;101533.59;5091190;28;20062;-77
2023/07/13 09:37:29;;;;;;;7.10;4.00;;;;;;;21.41;53.40;101527.50;5086966;28;20074;-77
2023/07/13 09:39:56;;;;;;;8.18;4.05;;;;;;;21.46;52.95;101525.44;5075045;28;20108;-76
2023/07/13 09:42:22;;;;;;;8.35;3.80;;;;;;;21.48;52.68;101534.41;5070752;28;20028;-76
2023/07/13 09:44:59;;;;;;;8.55;4.00;;;;;;;21.52;52.80;101540.28;5069429;28;20043;-76
2023/07/13 09:47:29;;;;;;;10.80;4.55;;;;;;;21.50;52.01;101528.47;5080088;28;20059;-76
2023/07/13 09:50:01;;;;;;;8.80;4.03;;;;;;;21.53;51.98;101527.84;5084877;28;20074;-76
2023/07/13 09:52:38;;;;;;;6.90;4.13;;;;;;;21.61;51.75;101531.94;5085350;28;20041;-76
2023/07/13 09:55:04;;;;;;;9.63;3.88;;;;;;;21.56;51.52;101533.69;5069584;28;20161;-76
2023/07/13 09:57:30;;;;;;;5.82;3.97;;;;;;;21.51;51.46;101536.63;5067561;28;20085;-77
2023/07/13 09:59:58;;;;;;;7.00;3.72;;;;;;;21.55;51.50;101539.66;5051469;28;20028;-76
2023/07/13 10:02:29;;;;;;;7.07;3.67;;;;;;;21.56;52.03;101530.88;5062355;28;20439;-78
2023/07/13 10:05:16;;;;;;;11.52;3.97;;;;;;;21.63;51.91;101541.78;5070694;28;20035;-77
2023/07/13 10:07:44;;;;;;;7.25;3.20;;;;;;;21.58;51.48;101544.72;5071646;28;20028;-80
2023/07/13 10:10:19;;;;;;;6.55;3.40;;;;;;;21.58;51.16;101533.41;5088967;28;20483;-76
2023/07/13 10:12:46;;;;;;;9.38;3.08;;;;;;;21.58;51.67;101536.22;5053385;28;20036;-74
2023/07/13 10:15:21;;;;;;;7.07;3.15;;;;;;;21.68;51.26;101538.00;5059422;28;20048;-78
2023/07/13 10:17:47;;;;;;;6.53;3.17;;;;;;;21.68;50.65;101527.53;5061374;28;20068;-80
2023/07/13 10:20:14;;;;;;;6.30;2.53;;;;;;;21.70;50.31;101541.38;5081958;28;20047;-78
2023/07/13 10:22:54;;;;;;;5.43;3.08;;;;;;;21.73;50.50;101535.94;5070496;28;20029;-82
2023/07/13 10:25:23;;;;;;;6.78;2.83;;;;;;;21.87;50.10;101540.75;5061299;28;20078;-78
2023/07/13 10:28:04;;;;;;;7.05;2.92;;;;;;;21.89;50.00;101544.97;5050354;28;20033;-74
2023/07/13 10:30:35;;;;;;;8.40;3.30;;;;;;;21.88;49.32;101533.94;5069873;28;20067;-77
2023/07/13 10:33:03;;;;;;;7.18;2.80;;;;;;;21.86;49.96;101533.44;5080618;28;20043;-75
2023/07/13 10:35:30;;;;;;;6.13;2.60;;;;;;;21.92;50.12;101532.19;5064585;28;20475;-78
2023/07/13 10:38:07;;;;;;;9.25;3.10;;;;;;;21.84;49.54;101547.88;5050370;28;20021;-72
2023/07/13 10:40:43;;;;;;;8.40;3.40;;;;;;;21.68;51.64;101547.31;5063116;28;20043;-75
2023/07/13 10:43:37;;;;;;;6.70;2.78;;;;;;;21.69;52.68;101557.50;5056462;28;20037;-79
2023/07/13 10:46:06;;;;;;;10.05;3.58;;;;;;;21.55;55.14;101562.28;5056115;28;20028;-80
2023/07/13 10:48:34;;;;;;;10.80;4.10;;;;;;;21.38;56.97;101574.16;5048033;28;20032;-75
2023/07/13 10:51:01;;;;;;;7.60;4.22;;;;;;;21.36;57.13;101576.44;5064857;28;20144;-73
2023/07/13 10:53:32;;;;;;;7.43;3.85;;;;;;;21.38;55.76;101574.16;5068610;28;20036;-73
2023/07/13 10:56:24;;;;;;;10.77;5.53;;;;;;;21.27;57.57;101584.75;5066363;28;20028;-76
2023/07/13 10:59:09;;;;;;;8.48;4.22;;;;;;;21.31;58.42;101584.97;5068144;28;21259;-72
2023/07/13 11:01:47;;;;;;;10.48;5.22;;;;;;;21.29;58.55;101573.13;5053353;28;20099;-76
2023/07/13 11:04:13;;;;;;;8.63;4.65;;;;;;;21.32;59.05;101579.03;5057165;28;20037;-76
2023/07/13 11:06:44;;;;;;;11.40;5.18;;;;;;;21.43;59.52;101576.88;5056240;28;20135;-79
2023/07/13 11:09:21;;;;;;;9.82;4.93;;;;;;;21.64;58.66;101566.03;5060835;28;20787;-77
2023/07/13 11:11:47;;;;;;;8.73;4.78;;;;;;;21.77;59.39;101564.38;5062174;28;20365;-79
2023/07/13 11:14:26;;;;;;;11.45;4.25;;;;;;;21.94;58.32;101567.47;5069110;28;20050;-78
2023/07/13 11:16:51;;;;;;;10.60;4.25;;;;;;;22.02;58.53;101560.25;5065627;28;20035;-79
2023/07/13 11:19:17;;;;;;;9.52;4.95;;;;;;;22.17;58.86;101561.97;5058321;28;20486;-79
2023/07/13 11:22:13;;;;;;;8.80;4.18;;;;;;;22.28;57.43;101561.44;5048783;28;20033;-76